createdAt,value
2023-02-27T00:00:33.991Z,25.13
2023-02-27T00:01:36.378Z,25.51
2023-02-27T00:02:38.401Z,25.23
2023-02-27T00:03:40.273Z,25.49
2023-02-27T00:04:42.162Z,25.54
2023-02-27T00:05:44.165Z,25.30
2023-02-27T00:06:45.947Z,25.49
2023-02-27T00:07:47.745Z,25.47
2023-02-27T00:08:49.713Z,25.41
2023-02-27T00:09:52.824Z,25.56
2023-02-27T00:10:54.685Z,25.33
2023-02-27T00:11:56.476Z,25.62
2023-02-27T00:12:58.330Z,25.62
2023-02-27T00:14:00.155Z,25.65
2023-02-27T00:15:01.967Z,25.57
2023-02-27T00:16:05.170Z,25.44
2023-02-27T00:17:07.969Z,25.52
2023-02-27T00:18:09.826Z,25.70
2023-02-27T00:19:12.534Z,25.31
2023-02-27T00:20:18.262Z,25.60
2023-02-27T00:21:20.727Z,25.15
2023-02-27T00:22:22.537Z,25.66
2023-02-27T00:23:24.452Z,25.71
2023-02-27T00:24:26.334Z,25.55
2023-02-27T00:25:28.263Z,25.83
2023-02-27T00:26:30.258Z,25.80
2023-02-27T00:27:32.836Z,26.01
2023-02-27T00:28:37.683Z,25.83
2023-02-27T00:29:39.803Z,25.81
2023-02-27T00:30:42.088Z,25.89
2023-02-27T00:31:45.103Z,25.74
2023-02-27T00:32:46.960Z,25.87
2023-02-27T00:33:48.914Z,25.66
2023-02-27T00:34:51.033Z,25.64
2023-02-27T00:35:58.318Z,25.83
2023-02-27T00:37:00.149Z,25.77
2023-02-27T00:38:02.327Z,25.47
2023-02-27T00:39:04.202Z,25.92
2023-02-27T00:40:07.446Z,25.75
2023-02-27T00:41:09.513Z,25.35
2023-02-27T00:42:11.410Z,25.70
2023-02-27T00:43:13.215Z,25.63
2023-02-27T00:44:15.055Z,25.88
2023-02-27T00:45:17.090Z,25.90
2023-02-27T00:46:19.808Z,25.74
2023-02-27T00:47:21.669Z,25.90
2023-02-27T00:48:23.628Z,25.62
2023-02-27T00:49:26.196Z,26.15
2023-02-27T00:50:28.159Z,25.96
2023-02-27T00:51:30.037Z,25.83
2023-02-27T00:52:33.794Z,26.01
2023-02-27T00:53:35.842Z,25.97
2023-02-27T00:54:37.787Z,26.24
2023-02-27T00:55:39.961Z,25.93
2023-02-27T00:56:42.583Z,25.93
2023-02-27T00:57:45.028Z,25.85
2023-02-27T00:58:47.041Z,26.05
2023-02-27T00:59:49.157Z,26.26
2023-02-27T01:00:51.057Z,26.08
2023-02-27T01:01:52.950Z,26.51
2023-02-27T01:02:55.050Z,26.09
2023-02-27T01:03:58.689Z,25.80
2023-02-27T01:05:00.569Z,26.12
2023-02-27T01:06:02.653Z,25.83
2023-02-27T01:07:04.572Z,26.23
2023-02-27T01:08:06.695Z,26.04
2023-02-27T01:09:08.530Z,26.27
2023-02-27T01:10:11.291Z,26.32
2023-02-27T01:11:13.256Z,26.17
2023-02-27T01:12:15.275Z,26.11
2023-02-27T01:13:19.449Z,26.37
2023-02-27T01:14:21.390Z,26.15
2023-02-27T01:15:24.308Z,26.34
2023-02-27T01:16:26.230Z,25.82
2023-02-27T01:17:28.162Z,26.06
2023-02-27T01:18:30.024Z,26.44
2023-02-27T01:19:32.111Z,26.67
2023-02-27T01:20:33.977Z,26.46
2023-02-27T01:21:36.114Z,26.35
2023-02-27T01:22:38.161Z,26.40
2023-02-27T01:23:39.982Z,26.46
2023-02-27T01:24:42.157Z,26.53
2023-02-27T01:25:43.976Z,26.13
2023-02-27T01:26:46.184Z,26.52
2023-02-27T01:27:48.006Z,26.04
2023-02-27T01:28:51.453Z,26.35
2023-02-27T01:29:53.400Z,26.62
2023-02-27T01:30:55.371Z,26.46
2023-02-27T01:31:57.578Z,26.43
2023-02-27T01:32:59.759Z,26.33
2023-02-27T01:34:01.588Z,26.40
2023-02-27T01:35:03.594Z,26.64
2023-02-27T01:36:05.693Z,26.51
2023-02-27T01:37:07.526Z,26.80
2023-02-27T01:38:09.709Z,26.43
2023-02-27T01:39:11.618Z,26.55
2023-02-27T01:40:15.001Z,26.71
2023-02-27T01:41:17.273Z,27.04
2023-02-27T01:42:25.628Z,26.59
2023-02-27T01:43:27.971Z,26.56
2023-02-27T01:44:31.631Z,26.70
2023-02-27T01:45:40.625Z,26.83
2023-02-27T01:46:43.085Z,26.82
2023-02-27T01:47:54.139Z,26.57
2023-02-27T01:49:01.692Z,26.92
2023-02-27T01:50:03.963Z,26.84
2023-02-27T01:51:14.213Z,26.66
2023-02-27T01:52:17.108Z,26.47
2023-02-27T01:53:20.899Z,26.71
2023-02-27T01:54:26.561Z,26.71
2023-02-27T01:55:31.323Z,26.67
2023-02-27T01:56:33.579Z,26.89
2023-02-27T01:57:36.612Z,26.89
2023-02-27T01:58:39.163Z,26.97
2023-02-27T01:59:42.573Z,27.03
2023-02-27T02:00:45.225Z,26.70
2023-02-27T02:01:47.256Z,26.84
2023-02-27T02:03:04.134Z,26.88
2023-02-27T02:04:17.849Z,26.91
2023-02-27T02:05:21.649Z,26.99
2023-02-27T02:06:23.686Z,27.00
2023-02-27T02:07:25.799Z,27.09
2023-02-27T02:08:30.772Z,26.88
2023-02-27T02:09:36.406Z,26.94
2023-02-27T02:10:39.965Z,27.00
2023-02-27T02:11:42.489Z,26.82
2023-02-27T02:12:45.709Z,26.91
2023-02-27T02:13:51.983Z,26.89
2023-02-27T02:14:54.035Z,26.84
2023-02-27T02:16:01.640Z,26.97
2023-02-27T02:17:15.010Z,26.86
2023-02-27T02:18:29.040Z,27.04
2023-02-27T02:20:02.059Z,26.85
2023-02-27T02:21:33.515Z,26.53
2023-02-27T02:22:38.229Z,26.68
2023-02-27T02:24:07.931Z,26.88
2023-02-27T02:25:42.928Z,26.82
2023-02-27T02:26:53.419Z,26.71
2023-02-27T02:28:36.780Z,26.74
2023-02-27T02:30:07.671Z,26.50
2023-02-27T02:31:25.047Z,26.48
2023-02-27T02:33:05.066Z,26.88
2023-02-27T02:34:37.938Z,26.63
2023-02-27T02:36:14.717Z,26.92
2023-02-27T02:38:06.231Z,26.75
2023-02-27T02:39:19.903Z,26.75
2023-02-27T02:40:31.838Z,26.59
2023-02-27T02:42:00.501Z,27.51
2023-02-27T02:43:08.158Z,26.82
2023-02-27T02:44:29.206Z,26.97
2023-02-27T02:45:44.062Z,26.72
2023-02-27T02:47:03.816Z,26.96
2023-02-27T02:48:27.377Z,26.74
2023-02-27T02:49:47.683Z,26.68
2023-02-27T02:50:49.481Z,26.66
2023-02-27T02:52:01.230Z,26.92
2023-02-27T02:53:19.045Z,27.05
2023-02-27T02:54:29.530Z,27.02
2023-02-27T02:55:44.903Z,26.82
2023-02-27T02:56:57.116Z,26.87
2023-02-27T02:58:10.463Z,26.95
2023-02-27T02:59:23.163Z,26.77
2023-02-27T03:00:31.945Z,27.14
2023-02-27T03:01:43.134Z,27.08
2023-02-27T03:02:49.862Z,26.80
2023-02-27T03:03:56.461Z,26.77
2023-02-27T03:05:04.035Z,26.94
2023-02-27T03:06:19.410Z,26.85
2023-02-27T03:07:30.354Z,26.90
2023-02-27T03:08:37.389Z,26.86
2023-02-27T03:10:05.432Z,26.90
2023-02-27T03:11:08.100Z,26.75
2023-02-27T03:12:14.456Z,26.79
2023-02-27T03:13:24.965Z,26.93
2023-02-27T03:14:34.084Z,26.95
2023-02-27T03:15:45.332Z,26.97
2023-02-27T03:16:53.370Z,27.02
2023-02-27T03:18:08.145Z,27.12
2023-02-27T03:19:28.127Z,26.89
2023-02-27T03:20:43.578Z,27.04
2023-02-27T03:21:48.060Z,26.82
2023-02-27T03:22:55.989Z,26.87
2023-02-27T03:24:03.367Z,26.85
2023-02-27T03:25:10.112Z,27.04
2023-02-27T03:26:21.300Z,26.92
2023-02-27T03:27:32.600Z,26.82
2023-02-27T03:28:44.012Z,27.07
2023-02-27T03:29:50.485Z,27.07
2023-02-27T03:31:09.985Z,27.34
2023-02-27T03:32:35.441Z,26.44
2023-02-27T03:33:51.982Z,27.10
2023-02-27T03:34:54.816Z,26.81
2023-02-27T03:36:08.399Z,26.87
2023-02-27T03:37:18.636Z,26.93
2023-02-27T03:38:27.933Z,26.84
2023-02-27T03:39:50.163Z,27.00
2023-02-27T03:41:10.212Z,26.95
2023-02-27T03:42:24.941Z,26.73
2023-02-27T03:44:11.147Z,26.81
2023-02-27T03:45:20.513Z,26.74
2023-02-27T03:46:24.829Z,26.83
2023-02-27T03:47:28.004Z,27.19
2023-02-27T03:48:31.253Z,27.15
2023-02-27T03:49:34.488Z,27.09
2023-02-27T03:50:37.489Z,27.02
2023-02-27T03:51:39.684Z,27.21
2023-02-27T03:52:41.742Z,26.94
2023-02-27T03:53:52.335Z,26.89
2023-02-27T03:54:59.996Z,27.04
2023-02-27T03:56:05.192Z,26.88
2023-02-27T03:57:08.881Z,27.12
2023-02-27T03:58:10.807Z,26.92
2023-02-27T03:59:13.700Z,27.05
2023-02-27T04:00:23.690Z,27.14
2023-02-27T04:01:26.380Z,27.22
2023-02-27T04:02:28.851Z,27.07
2023-02-27T04:03:36.167Z,27.05
2023-02-27T04:04:39.555Z,26.90
2023-02-27T04:05:44.503Z,27.17
2023-02-27T04:07:23.403Z,27.11
2023-02-27T04:08:25.164Z,26.67
2023-02-27T04:09:38.886Z,27.12
2023-02-27T04:11:05.290Z,26.81
2023-02-27T04:12:29.174Z,26.75
2023-02-27T04:13:44.983Z,26.90
2023-02-27T04:15:02.524Z,26.97
2023-02-27T04:16:23.176Z,27.05
2023-02-27T04:17:31.771Z,27.17
2023-02-27T04:19:18.194Z,27.22
2023-02-27T04:20:38.317Z,26.74
2023-02-27T04:22:28.022Z,27.03
2023-02-27T04:23:40.447Z,26.77
2023-02-27T04:24:50.711Z,26.85
2023-02-27T04:26:12.402Z,27.05
2023-02-27T04:27:39.267Z,27.15
2023-02-27T04:28:51.130Z,27.05
2023-02-27T04:30:03.785Z,27.19
2023-02-27T04:31:09.958Z,27.13
2023-02-27T04:32:41.412Z,26.88
2023-02-27T04:34:16.400Z,26.83
2023-02-27T04:35:26.660Z,26.90
2023-02-27T04:36:39.606Z,26.90
2023-02-27T04:37:47.734Z,26.81
2023-02-27T04:39:15.153Z,26.99
2023-02-27T04:40:24.578Z,26.96
2023-02-27T04:41:55.907Z,27.34
2023-02-27T04:43:00.896Z,27.23
2023-02-27T04:44:05.395Z,27.00
2023-02-27T04:45:14.226Z,27.16
2023-02-27T04:46:22.310Z,27.32
2023-02-27T04:47:28.900Z,27.06
2023-02-27T04:48:37.185Z,27.15
2023-02-27T04:49:50.403Z,27.54
2023-02-27T04:50:58.116Z,27.14
2023-02-27T04:52:12.622Z,27.15
2023-02-27T04:53:23.473Z,27.27
2023-02-27T04:54:31.822Z,27.20
2023-02-27T04:55:41.526Z,27.43
2023-02-27T04:56:54.194Z,27.06
2023-02-27T04:58:05.551Z,27.30
2023-02-27T04:59:18.215Z,27.06
2023-02-27T05:00:24.232Z,27.21
2023-02-27T05:01:39.336Z,27.01
2023-02-27T05:02:46.254Z,27.03
2023-02-27T05:03:52.428Z,27.51
2023-02-27T05:04:59.080Z,27.38
2023-02-27T05:06:02.657Z,27.17
2023-02-27T05:07:09.548Z,27.16
2023-02-27T05:08:35.089Z,27.13
2023-02-27T05:10:01.689Z,27.09
2023-02-27T05:11:16.207Z,27.27
2023-02-27T05:12:18.093Z,27.24
2023-02-27T05:13:30.759Z,27.13
2023-02-27T05:14:38.941Z,27.27
2023-02-27T05:15:48.835Z,27.30
2023-02-27T05:16:58.407Z,27.20
2023-02-27T05:18:07.132Z,27.03
2023-02-27T05:19:10.260Z,27.07
2023-02-27T05:20:13.588Z,27.19
2023-02-27T05:21:34.633Z,27.19
2023-02-27T05:22:58.998Z,26.87
2023-02-27T05:24:11.408Z,26.96
2023-02-27T05:25:36.747Z,27.20
2023-02-27T05:27:00.320Z,27.18
2023-02-27T05:28:11.046Z,26.85
2023-02-27T05:29:22.497Z,27.17
2023-02-27T05:30:38.682Z,27.04
2023-02-27T05:32:01.869Z,27.13
2023-02-27T05:33:12.831Z,26.79
2023-02-27T05:34:19.536Z,27.24
2023-02-27T05:35:34.002Z,27.13
2023-02-27T05:36:47.735Z,27.10
2023-02-27T05:37:49.581Z,27.18
2023-02-27T05:38:59.688Z,27.08
2023-02-27T05:40:08.484Z,27.19
2023-02-27T05:41:26.048Z,26.97
2023-02-27T05:42:44.792Z,26.99
2023-02-27T05:43:59.670Z,27.24
2023-02-27T05:45:31.162Z,27.18
2023-02-27T05:46:40.872Z,26.78
2023-02-27T05:47:48.270Z,27.10
2023-02-27T05:48:55.251Z,27.10
2023-02-27T05:50:07.594Z,27.23
2023-02-27T05:51:13.210Z,27.13
2023-02-27T05:52:19.513Z,26.99
2023-02-27T05:53:25.074Z,27.17
2023-02-27T05:54:50.425Z,27.18
2023-02-27T05:55:59.505Z,26.96
2023-02-27T05:57:04.617Z,26.88
2023-02-27T05:58:14.075Z,27.13
2023-02-27T05:59:24.226Z,27.09
2023-02-27T06:00:37.111Z,26.95
2023-02-27T06:01:38.958Z,26.99
2023-02-27T06:02:43.126Z,26.89
2023-02-27T06:03:46.879Z,27.02
2023-02-27T06:04:48.769Z,27.01
2023-02-27T06:05:53.693Z,27.22
2023-02-27T06:06:55.527Z,27.08
2023-02-27T06:07:57.312Z,27.20
2023-02-27T06:08:59.236Z,27.30
2023-02-27T06:10:01.635Z,27.03
2023-02-27T06:11:03.662Z,26.99
2023-02-27T06:12:05.599Z,27.17
2023-02-27T06:13:07.565Z,27.02
2023-02-27T06:14:09.603Z,27.03
2023-02-27T06:15:12.419Z,26.81
2023-02-27T06:16:16.236Z,26.84
2023-02-27T06:17:18.401Z,26.86
2023-02-27T06:18:20.739Z,26.87
2023-02-27T06:19:22.715Z,26.88
2023-02-27T06:20:24.545Z,26.85
2023-02-27T06:21:26.368Z,26.78
2023-02-27T06:22:28.380Z,26.47
2023-02-27T06:23:31.046Z,26.70
2023-02-27T06:24:32.835Z,26.52
2023-02-27T06:25:35.131Z,26.47
2023-02-27T06:26:36.987Z,26.60
2023-02-27T06:27:39.150Z,26.29
2023-02-27T06:28:42.688Z,26.14
2023-02-27T06:29:44.502Z,26.39
2023-02-27T06:30:46.724Z,26.35
2023-02-27T06:31:48.584Z,25.98
2023-02-27T06:32:50.454Z,26.25
2023-02-27T06:33:52.450Z,26.12
2023-02-27T06:34:54.606Z,26.18
2023-02-27T06:35:56.674Z,25.99
2023-02-27T06:36:58.641Z,25.77
2023-02-27T06:38:00.497Z,25.93
2023-02-27T06:39:02.414Z,26.13
2023-02-27T06:40:06.002Z,25.77
2023-02-27T06:41:07.913Z,25.86
2023-02-27T06:42:09.794Z,25.63
2023-02-27T06:43:11.642Z,25.73
2023-02-27T06:44:13.543Z,25.77
2023-02-27T06:45:16.758Z,25.69
2023-02-27T06:46:18.593Z,25.34
2023-02-27T06:47:20.440Z,25.62
2023-02-27T06:48:22.420Z,25.61
2023-02-27T06:49:24.211Z,25.31
2023-02-27T06:50:26.099Z,25.68
2023-02-27T06:51:28.113Z,25.46
2023-02-27T06:52:29.972Z,25.32
2023-02-27T06:53:31.794Z,25.17
2023-02-27T06:54:34.056Z,25.27
2023-02-27T06:55:35.894Z,25.42
2023-02-27T06:56:37.948Z,25.50
2023-02-27T06:57:39.905Z,25.09
2023-02-27T06:58:42.098Z,24.89
2023-02-27T06:59:45.451Z,24.98
2023-02-27T07:00:47.472Z,25.01
2023-02-27T07:01:49.281Z,25.22
2023-02-27T07:02:51.089Z,25.22
2023-02-27T07:03:52.912Z,25.15
2023-02-27T07:04:54.792Z,25.07
2023-02-27T07:05:58.401Z,24.98
2023-02-27T07:07:33.840Z,24.86
2023-02-27T07:08:22.109Z,24.78
2023-02-27T07:09:23.989Z,24.79
2023-02-27T07:10:26.123Z,24.84
2023-02-27T07:11:27.923Z,25.04
2023-02-27T07:12:29.811Z,24.97
2023-02-27T07:13:31.642Z,25.10
2023-02-27T07:14:33.926Z,24.84
2023-02-27T07:15:35.806Z,24.73
2023-02-27T07:16:37.829Z,24.69
2023-02-27T07:17:39.949Z,24.98
2023-02-27T07:18:42.166Z,24.60
2023-02-27T07:19:43.995Z,25.06
2023-02-27T07:20:45.942Z,24.70
2023-02-27T07:21:47.734Z,24.68
2023-02-27T07:22:49.619Z,24.76
2023-02-27T07:23:51.636Z,25.16
2023-02-27T07:24:53.561Z,24.99
2023-02-27T07:25:55.457Z,25.17
2023-02-27T07:26:57.236Z,25.12
2023-02-27T07:27:59.109Z,24.90
2023-02-27T07:29:00.921Z,24.95
2023-02-27T07:30:03.501Z,24.85
2023-02-27T07:31:05.642Z,24.87
2023-02-27T07:32:07.747Z,25.14
2023-02-27T07:33:09.654Z,25.19
2023-02-27T07:34:12.015Z,24.93
2023-02-27T07:35:13.882Z,25.08
2023-02-27T07:36:15.752Z,24.93
2023-02-27T07:37:18.409Z,24.86
2023-02-27T07:38:22.594Z,24.82
2023-02-27T07:39:24.446Z,24.89
2023-02-27T07:40:26.541Z,24.88
2023-02-27T07:41:30.954Z,25.01
2023-02-27T07:42:35.499Z,24.72
2023-02-27T07:43:37.391Z,25.02
2023-02-27T07:44:40.628Z,24.89
2023-02-27T07:45:42.803Z,24.85
2023-02-27T07:46:45.182Z,25.00
2023-02-27T07:47:47.131Z,25.14
2023-02-27T07:48:48.992Z,25.00
2023-02-27T07:49:50.759Z,24.91
2023-02-27T07:50:52.598Z,24.92
2023-02-27T07:51:54.472Z,24.77
2023-02-27T07:52:56.551Z,25.07
2023-02-27T07:53:58.872Z,24.79
2023-02-27T07:55:00.754Z,24.89
2023-02-27T07:56:02.573Z,24.75
2023-02-27T07:57:05.274Z,25.00
2023-02-27T07:58:07.347Z,24.97
2023-02-27T07:59:09.240Z,24.88
2023-02-27T08:00:11.693Z,25.22
2023-02-27T08:01:16.461Z,25.05
2023-02-27T08:02:18.330Z,24.85
2023-02-27T08:03:20.316Z,24.73
2023-02-27T08:04:22.236Z,25.07
2023-02-27T08:05:24.073Z,25.53
2023-02-27T08:06:26.308Z,24.96
2023-02-27T08:07:28.429Z,24.94
2023-02-27T08:08:30.502Z,25.20
2023-02-27T08:09:32.500Z,24.94
2023-02-27T08:10:34.380Z,24.99
2023-02-27T08:11:36.179Z,24.96
2023-02-27T08:12:38.309Z,24.86
2023-02-27T08:13:59.595Z,24.95
2023-02-27T08:15:02.264Z,25.03
2023-02-27T08:16:04.375Z,25.20
2023-02-27T08:17:06.289Z,25.04
2023-02-27T08:18:08.924Z,25.08
2023-02-27T08:19:13.820Z,25.54
2023-02-27T08:20:16.117Z,25.05
2023-02-27T08:21:18.019Z,24.85
2023-02-27T08:22:19.892Z,25.28
2023-02-27T08:23:21.691Z,24.99
2023-02-27T08:24:23.813Z,24.88
2023-02-27T08:25:25.678Z,25.09
2023-02-27T08:26:27.893Z,25.09
2023-02-27T08:27:30.012Z,25.17
2023-02-27T08:28:31.842Z,25.31
2023-02-27T08:29:34.109Z,25.18
2023-02-27T08:30:35.935Z,25.01
2023-02-27T08:31:38.132Z,25.14
2023-02-27T08:32:40.099Z,25.27
2023-02-27T08:33:42.052Z,25.08
2023-02-27T08:34:43.914Z,24.97
2023-02-27T08:35:45.818Z,25.22
2023-02-27T08:36:47.668Z,25.03
2023-02-27T08:37:49.868Z,25.09
2023-02-27T08:38:51.686Z,25.11
2023-02-27T08:39:53.499Z,25.01
2023-02-27T08:40:55.433Z,24.97
2023-02-27T08:41:57.302Z,25.02
2023-02-27T08:42:59.439Z,25.07
2023-02-27T08:44:01.400Z,25.09
2023-02-27T08:45:04.036Z,25.01
2023-02-27T08:46:06.021Z,25.23
2023-02-27T08:47:07.954Z,24.95
2023-02-27T08:48:14.095Z,25.38
2023-02-27T08:49:16.162Z,25.05
2023-02-27T08:50:18.045Z,25.13
2023-02-27T08:51:19.826Z,24.95
2023-02-27T08:52:23.471Z,25.30
2023-02-27T08:53:26.950Z,25.22
2023-02-27T08:54:28.843Z,24.89
2023-02-27T08:55:30.643Z,25.12
2023-02-27T08:56:34.562Z,25.30
2023-02-27T08:57:36.522Z,25.18
2023-02-27T08:58:38.294Z,24.95
2023-02-27T08:59:40.192Z,25.28
2023-02-27T09:00:42.018Z,25.03
2023-02-27T09:01:43.863Z,25.24
2023-02-27T09:02:45.965Z,24.97
2023-02-27T09:03:47.787Z,25.20
2023-02-27T09:04:49.696Z,25.37
2023-02-27T09:05:51.483Z,25.40
2023-02-27T09:06:57.455Z,25.32
2023-02-27T09:07:59.228Z,24.91
2023-02-27T09:09:01.519Z,25.01
2023-02-27T09:10:03.884Z,25.21
2023-02-27T09:11:05.823Z,25.04
2023-02-27T09:12:07.710Z,25.10
2023-02-27T09:13:10.220Z,25.14
2023-02-27T09:14:13.386Z,25.32
2023-02-27T09:15:15.394Z,25.42
2023-02-27T09:16:18.474Z,24.92
2023-02-27T09:17:20.289Z,25.32
2023-02-27T09:18:23.239Z,24.83
2023-02-27T09:19:25.157Z,24.94
2023-02-27T09:20:27.027Z,25.34
2023-02-27T09:21:29.887Z,25.13
2023-02-27T09:22:31.729Z,25.05
2023-02-27T09:23:33.767Z,24.96
2023-02-27T09:24:35.608Z,25.42
2023-02-27T09:25:37.722Z,25.28
2023-02-27T09:26:45.754Z,25.22
2023-02-27T09:27:48.018Z,25.37
2023-02-27T09:28:49.904Z,25.22
2023-02-27T09:29:56.525Z,25.01
2023-02-27T09:31:06.342Z,25.41
2023-02-27T09:32:08.919Z,25.45
2023-02-27T09:33:11.101Z,25.07
2023-02-27T09:34:13.012Z,25.05
2023-02-27T09:35:20.446Z,25.20
2023-02-27T09:36:22.733Z,25.30
2023-02-27T09:37:25.058Z,25.02
2023-02-27T09:38:26.999Z,25.19
2023-02-27T09:39:30.229Z,25.42
2023-02-27T09:40:38.152Z,25.16
2023-02-27T09:41:51.401Z,25.36
2023-02-27T09:42:58.289Z,25.34
2023-02-27T09:44:01.699Z,25.24
2023-02-27T09:45:06.677Z,25.41
2023-02-27T09:46:17.845Z,25.05
2023-02-27T09:47:54.284Z,25.23
2023-02-27T09:49:00.235Z,25.22
2023-02-27T09:50:22.358Z,25.02
2023-02-27T09:51:26.558Z,25.21
2023-02-27T09:52:31.116Z,24.89
2023-02-27T09:53:40.257Z,25.30
2023-02-27T09:54:44.502Z,25.20
2023-02-27T09:55:47.018Z,25.19
2023-02-27T09:57:01.038Z,25.46
2023-02-27T09:58:23.537Z,25.14
2023-02-27T09:59:39.810Z,25.32
2023-02-27T10:01:20.638Z,25.34
2023-02-27T10:02:37.468Z,25.24
2023-02-27T10:03:54.301Z,24.95
2023-02-27T10:05:00.104Z,25.21
2023-02-27T10:06:25.141Z,24.83
2023-02-27T10:07:35.260Z,24.85
2023-02-27T10:09:05.304Z,24.93
2023-02-27T10:10:20.826Z,24.97
2023-02-27T10:11:35.283Z,25.31
2023-02-27T10:12:53.887Z,24.90
2023-02-27T10:14:26.231Z,24.90
2023-02-27T10:15:35.209Z,25.23
2023-02-27T10:16:38.025Z,25.02
2023-02-27T10:17:42.232Z,25.06
2023-02-27T10:18:55.204Z,24.91
2023-02-27T10:20:01.026Z,24.89
2023-02-27T10:21:14.325Z,25.19
2023-02-27T10:22:23.488Z,25.14
2023-02-27T10:23:43.863Z,25.27
2023-02-27T10:24:52.560Z,24.90
2023-02-27T10:25:55.234Z,25.17
2023-02-27T10:27:00.051Z,25.33
2023-02-27T10:28:22.322Z,25.19
2023-02-27T10:29:32.876Z,25.13
2023-02-27T10:30:35.283Z,25.37
2023-02-27T10:31:37.595Z,25.14
2023-02-27T10:32:40.882Z,25.36
2023-02-27T10:33:45.189Z,25.18
2023-02-27T10:35:30.405Z,25.03
2023-02-27T10:36:34.617Z,24.96
2023-02-27T10:37:45.155Z,25.11
2023-02-27T10:38:55.209Z,24.86
2023-02-27T10:40:00.708Z,25.04
2023-02-27T10:41:03.923Z,25.22
2023-02-27T10:42:09.825Z,25.12
2023-02-27T10:43:16.505Z,25.00
2023-02-27T10:44:21.414Z,25.27
2023-02-27T10:45:23.273Z,24.86
2023-02-27T10:46:33.140Z,24.91
2023-02-27T10:47:34.983Z,24.97
2023-02-27T10:48:36.810Z,25.34
2023-02-27T10:49:39.331Z,25.07
2023-02-27T10:50:44.465Z,25.10
2023-02-27T10:51:48.104Z,24.82
2023-02-27T10:52:59.061Z,25.41
2023-02-27T10:54:19.249Z,24.76
2023-02-27T10:55:27.946Z,25.22
2023-02-27T10:56:31.449Z,24.98
2023-02-27T10:57:43.020Z,24.95
2023-02-27T10:58:45.743Z,24.94
2023-02-27T10:59:57.959Z,25.15
2023-02-27T11:01:02.860Z,25.34
2023-02-27T11:02:21.033Z,25.10
2023-02-27T11:03:26.543Z,25.31
2023-02-27T11:04:38.216Z,24.93
2023-02-27T11:05:40.169Z,24.95
2023-02-27T11:06:42.742Z,25.25
2023-02-27T11:07:44.878Z,25.21
2023-02-27T11:09:29.682Z,24.85
2023-02-27T11:10:31.554Z,24.97
2023-02-27T11:11:33.629Z,25.23
2023-02-27T11:12:35.588Z,25.07
2023-02-27T11:13:42.713Z,25.13
2023-02-27T11:15:16.437Z,24.71
2023-02-27T11:16:23.778Z,24.85
2023-02-27T11:17:34.780Z,24.56
2023-02-27T11:18:40.131Z,24.80
2023-02-27T11:19:42.013Z,25.02
2023-02-27T11:20:44.195Z,24.92
2023-02-27T11:22:07.824Z,24.80
2023-02-27T11:23:22.266Z,24.99
2023-02-27T11:24:24.213Z,24.98
2023-02-27T11:25:26.131Z,24.95
2023-02-27T11:26:36.629Z,24.96
2023-02-27T11:27:38.561Z,25.23
2023-02-27T11:28:40.567Z,25.02
2023-02-27T11:30:00.959Z,25.18
2023-02-27T11:31:23.453Z,25.13
2023-02-27T11:32:31.686Z,25.06
2023-02-27T11:33:41.541Z,25.10
2023-02-27T11:34:51.716Z,24.90
2023-02-27T11:35:57.231Z,24.92
2023-02-27T11:37:04.484Z,24.81
2023-02-27T11:38:19.626Z,25.07
2023-02-27T11:39:26.715Z,24.86
2023-02-27T11:40:34.499Z,25.05
2023-02-27T11:41:37.382Z,24.87
2023-02-27T11:42:47.363Z,25.10
2023-02-27T11:43:53.107Z,25.03
2023-02-27T11:46:05.197Z,25.02
2023-02-27T11:46:50.826Z,25.01
2023-02-27T11:47:58.295Z,25.01
2023-02-27T11:49:04.223Z,24.84
2023-02-27T11:50:18.437Z,24.66
2023-02-27T11:51:32.871Z,25.06
2023-02-27T11:52:59.329Z,24.60
2023-02-27T11:54:30.124Z,24.72
2023-02-27T11:55:33.291Z,24.76
2023-02-27T11:56:48.526Z,24.74
2023-02-27T11:57:58.880Z,24.91
2023-02-27T11:59:15.275Z,24.93
2023-02-27T12:00:19.835Z,24.84
2023-02-27T12:01:31.434Z,25.08
2023-02-27T12:02:43.405Z,24.99
2023-02-27T12:04:00.291Z,25.11
2023-02-27T12:05:28.000Z,25.20
2023-02-27T12:06:44.718Z,25.00
2023-02-27T12:08:14.195Z,24.93
2023-02-27T12:09:42.936Z,24.58
2023-02-27T12:11:12.481Z,25.00
2023-02-27T12:12:24.633Z,24.70
2023-02-27T12:13:31.691Z,25.10
2023-02-27T12:14:49.300Z,25.13
2023-02-27T12:16:03.350Z,25.03
2023-02-27T12:17:25.441Z,24.55
2023-02-27T12:18:36.030Z,24.94
2023-02-27T12:20:14.884Z,25.13
2023-02-27T12:21:24.430Z,25.01
2023-02-27T12:22:38.686Z,24.86
2023-02-27T12:23:48.252Z,24.95
2023-02-27T12:25:15.707Z,24.92
2023-02-27T12:26:25.960Z,25.26
2023-02-27T12:27:43.831Z,24.98
2023-02-27T12:29:00.473Z,24.74
2023-02-27T12:30:08.130Z,25.10
2023-02-27T12:31:32.522Z,24.82
2023-02-27T12:33:10.211Z,24.65
2023-02-27T12:34:18.227Z,24.59
2023-02-27T12:35:26.265Z,24.77
2023-02-27T12:36:28.380Z,24.64
2023-02-27T12:37:33.607Z,24.79
2023-02-27T12:38:38.557Z,25.06
2023-02-27T12:39:43.154Z,25.20
2023-02-27T12:41:30.557Z,25.05
2023-02-27T12:42:53.877Z,24.77
2023-02-27T12:44:24.410Z,25.02
2023-02-27T12:45:53.249Z,25.06
2023-02-27T12:47:30.623Z,24.64
2023-02-27T12:48:47.762Z,24.87
2023-02-27T12:50:02.961Z,24.62
2023-02-27T12:51:32.162Z,25.31
2023-02-27T12:52:43.033Z,24.91
2023-02-27T12:54:03.602Z,25.24
2023-02-27T12:55:27.388Z,25.09
2023-02-27T12:56:58.801Z,25.09
2023-02-27T12:58:22.401Z,24.63
2023-02-27T12:59:42.450Z,25.16
2023-02-27T13:00:50.126Z,24.52
2023-02-27T13:02:13.791Z,24.77
2023-02-27T13:03:40.019Z,25.34
2023-02-27T13:05:09.348Z,24.94
2023-02-27T13:06:19.995Z,25.19
2023-02-27T13:07:24.826Z,24.85
2023-02-27T13:08:38.712Z,25.15
2023-02-27T13:09:54.190Z,24.87
2023-02-27T13:11:29.916Z,24.73
2023-02-27T13:12:31.888Z,24.73
2023-02-27T13:13:42.798Z,25.08
2023-02-27T13:14:52.856Z,24.97
2023-02-27T13:16:00.861Z,24.93
2023-02-27T13:17:21.500Z,24.63
2023-02-27T13:18:26.241Z,25.17
2023-02-27T13:19:36.758Z,24.96
2023-02-27T13:20:50.580Z,25.10
2023-02-27T13:21:56.079Z,24.66
2023-02-27T13:23:27.592Z,24.90
2023-02-27T13:24:31.339Z,24.97
2023-02-27T13:25:37.210Z,25.07
2023-02-27T13:26:44.091Z,25.17
2023-02-27T13:27:53.761Z,24.98
2023-02-27T13:28:56.628Z,25.02
2023-02-27T13:30:04.149Z,24.76
2023-02-27T13:31:31.997Z,24.71
2023-02-27T13:32:49.149Z,25.03
2023-02-27T13:34:08.520Z,25.07
2023-02-27T13:35:31.999Z,24.66
2023-02-27T13:36:45.042Z,24.76
2023-02-27T13:38:01.664Z,24.74
2023-02-27T13:39:03.859Z,25.10
2023-02-27T13:40:30.176Z,24.92
2023-02-27T13:41:38.274Z,24.68
2023-02-27T13:42:40.022Z,24.71
2023-02-27T13:43:51.883Z,24.77
2023-02-27T13:44:56.832Z,24.86
2023-02-27T13:46:01.189Z,25.14
2023-02-27T13:47:41.754Z,25.21
2023-02-27T13:48:45.952Z,24.70
2023-02-27T13:49:47.815Z,24.68
2023-02-27T13:50:51.516Z,25.13
2023-02-27T13:51:56.516Z,24.97
2023-02-27T13:53:10.062Z,24.80
2023-02-27T13:54:17.430Z,24.94
2023-02-27T13:55:29.193Z,24.87
2023-02-27T13:56:31.047Z,24.70
2023-02-27T13:57:36.737Z,24.82
2023-02-27T13:58:38.731Z,24.85
2023-02-27T13:59:44.348Z,25.03
2023-02-27T14:00:57.319Z,24.80
2023-02-27T14:02:02.114Z,24.67
2023-02-27T14:03:26.531Z,24.86
2023-02-27T14:04:33.029Z,24.87
2023-02-27T14:05:38.020Z,24.60
2023-02-27T14:06:45.608Z,24.97
2023-02-27T14:07:53.694Z,25.13
2023-02-27T14:09:08.872Z,25.14
2023-02-27T14:10:26.420Z,24.82
2023-02-27T14:11:39.759Z,25.04
2023-02-27T14:12:45.794Z,24.89
2023-02-27T14:13:51.111Z,25.30
2023-02-27T14:14:53.492Z,25.04
2023-02-27T14:15:57.491Z,25.02
2023-02-27T14:17:00.659Z,25.27
2023-02-27T14:18:15.685Z,25.29
2023-02-27T14:19:27.544Z,24.64
2023-02-27T14:20:30.572Z,24.83
2023-02-27T14:21:53.749Z,24.63
2023-02-27T14:23:20.740Z,24.83
2023-02-27T14:24:41.390Z,25.20
2023-02-27T14:26:12.149Z,25.01
2023-02-27T14:27:22.703Z,24.66
2023-02-27T14:28:27.073Z,25.21
2023-02-27T14:29:33.743Z,24.94
2023-02-27T14:30:40.885Z,24.93
2023-02-27T14:31:44.497Z,24.93
2023-02-27T14:32:46.759Z,25.41
2023-02-27T14:33:55.961Z,25.30
2023-02-27T14:34:58.194Z,25.03
2023-02-27T14:36:08.048Z,25.26
2023-02-27T14:37:17.400Z,25.19
2023-02-27T14:38:21.233Z,24.67
2023-02-27T14:39:34.844Z,25.19
2023-02-27T14:41:08.126Z,24.73
2023-02-27T14:42:31.630Z,24.96
2023-02-27T14:43:44.997Z,24.98